createdAt,value
2024-01-09T00:00:35.355Z,0.99
2024-01-09T00:03:24.110Z,0.96
2024-01-09T00:05:51.548Z,0.75
2024-01-09T00:08:18.943Z,0.61
2024-01-09T00:10:46.350Z,0.73
2024-01-09T00:13:13.616Z,0.83
2024-01-09T00:15:41.038Z,0.83
2024-01-09T00:18:08.337Z,0.76
2024-01-09T00:20:37.073Z,0.63
2024-01-09T00:23:04.553Z,0.48
2024-01-09T00:25:32.100Z,0.39
2024-01-09T00:27:59.792Z,0.34
2024-01-09T00:30:27.174Z,0.36
2024-01-09T00:32:54.629Z,0.41
2024-01-09T00:35:22.196Z,0.49
2024-01-09T00:37:50.780Z,0.44
2024-01-09T00:40:18.449Z,0.42
2024-01-09T00:42:45.578Z,0.41
2024-01-09T00:45:12.936Z,0.47
2024-01-09T00:47:40.247Z,0.39
2024-01-09T00:50:08.230Z,0.44
2024-01-09T00:52:35.540Z,0.46
2024-01-09T00:55:04.938Z,0.47
2024-01-09T00:57:31.964Z,0.41
2024-01-09T00:59:59.383Z,0.43
2024-01-09T01:02:26.666Z,0.38
2024-01-09T01:04:54.193Z,0.41
2024-01-09T01:07:21.337Z,0.43
2024-01-09T01:09:48.669Z,0.45
2024-01-09T01:12:17.155Z,0.47
2024-01-09T01:14:44.703Z,0.44
2024-01-09T01:17:11.999Z,0.47
2024-01-09T01:19:39.472Z,0.49
2024-01-09T01:22:06.695Z,0.56
2024-01-09T01:24:34.096Z,0.61
2024-01-09T01:27:01.248Z,0.67
2024-01-09T01:29:30.296Z,0.63
2024-01-09T01:31:57.491Z,0.60
2024-01-09T01:34:25.119Z,0.54
2024-01-09T01:36:52.292Z,0.49
2024-01-09T01:39:19.670Z,0.52
2024-01-09T01:41:46.960Z,0.44
2024-01-09T01:44:18.128Z,0.46
2024-01-09T01:46:48.270Z,0.46
2024-01-09T01:49:18.359Z,0.48
2024-01-09T01:51:47.853Z,0.45
2024-01-09T01:54:15.739Z,0.22
2024-01-09T01:56:43.296Z,0.51
2024-01-09T01:59:12.071Z,0.42
2024-01-09T02:01:39.875Z,0.55
2024-01-09T02:04:10.318Z,0.54
2024-01-09T02:06:38.550Z,0.47
2024-01-09T02:09:06.029Z,0.48
2024-01-09T02:11:34.152Z,0.55
2024-01-09T02:14:01.585Z,0.54
2024-01-09T02:16:29.190Z,0.53
2024-01-09T02:18:56.687Z,0.25
2024-01-09T02:21:25.184Z,0.59
2024-01-09T02:23:52.819Z,0.54
2024-01-09T02:26:39.751Z,0.52
2024-01-09T02:29:14.177Z,0.45
2024-01-09T02:31:43.152Z,0.56
2024-01-09T02:34:16.616Z,0.48
2024-01-09T02:36:43.787Z,0.46
2024-01-09T02:39:11.093Z,0.41
2024-01-09T02:41:39.419Z,0.43
2024-01-09T02:44:07.025Z,0.43
2024-01-09T02:46:34.147Z,0.43
2024-01-09T02:49:03.059Z,0.57
2024-01-09T02:51:30.202Z,0.67
2024-01-09T02:53:57.638Z,0.63
2024-01-09T02:56:24.780Z,0.69
2024-01-09T02:58:52.272Z,0.80
2024-01-09T03:01:19.380Z,0.85
2024-01-09T03:03:46.837Z,0.79
2024-01-09T03:06:15.608Z,0.64
2024-01-09T03:08:42.956Z,0.48
2024-01-09T03:11:10.157Z,0.34
2024-01-09T03:13:39.082Z,0.19
2024-01-09T03:16:11.016Z,0.32
2024-01-09T03:18:38.609Z,0.46
2024-01-09T03:21:06.041Z,0.38
2024-01-09T03:23:35.160Z,0.34
2024-01-09T03:26:02.418Z,0.41
2024-01-09T03:28:29.826Z,0.47
2024-01-09T03:30:56.912Z,0.53
2024-01-09T03:33:24.685Z,0.47
2024-01-09T03:35:52.020Z,0.51
2024-01-09T03:38:19.400Z,0.64
2024-01-09T03:40:48.238Z,0.70
2024-01-09T03:43:15.642Z,0.80
2024-01-09T03:45:42.693Z,0.75
2024-01-09T03:48:10.148Z,0.64
2024-01-09T03:50:37.304Z,0.56
2024-01-09T03:53:04.921Z,0.46
2024-01-09T03:55:32.025Z,0.39
2024-01-09T03:58:00.665Z,0.35
2024-01-09T04:00:27.909Z,0.36
2024-01-09T04:02:55.466Z,0.38
2024-01-09T04:05:22.747Z,0.45
2024-01-09T04:07:50.170Z,0.57
2024-01-09T04:10:17.601Z,0.54
2024-01-09T04:12:45.034Z,0.50
2024-01-09T04:15:14.799Z,0.10
2024-01-09T04:17:42.358Z,0.36
2024-01-09T04:20:13.147Z,0.32
2024-01-09T04:22:40.633Z,0.24
2024-01-09T04:25:09.268Z,0.13
2024-01-09T04:27:36.612Z,0.12
2024-01-09T04:30:05.025Z,0.24
2024-01-09T04:32:33.818Z,0.31
2024-01-09T04:35:01.059Z,0.24
2024-01-09T04:37:28.539Z,0.42
2024-01-09T04:39:55.779Z,0.47
2024-01-09T04:42:23.223Z,0.54
2024-01-09T04:44:50.290Z,0.45
2024-01-09T04:47:17.775Z,0.42
2024-01-09T04:49:46.261Z,0.47
2024-01-09T04:52:14.574Z,0.62
2024-01-09T04:54:41.639Z,0.67
2024-01-09T04:57:09.121Z,0.69
2024-01-09T04:59:36.348Z,0.74
2024-01-09T05:02:04.400Z,0.62
2024-01-09T05:04:31.987Z,0.71
2024-01-09T05:07:00.891Z,0.77
2024-01-09T05:09:28.695Z,0.77
2024-01-09T05:11:56.360Z,0.69
2024-01-09T05:14:23.815Z,0.61
2024-01-09T05:16:51.207Z,0.58
2024-01-09T05:19:18.490Z,0.57
2024-01-09T05:21:46.253Z,0.63
2024-01-09T05:24:14.968Z,0.64
2024-01-09T05:26:42.547Z,0.64
2024-01-09T05:29:10.123Z,0.56
2024-01-09T05:31:42.821Z,0.63
2024-01-09T05:34:09.928Z,0.48
2024-01-09T05:36:37.417Z,0.65
2024-01-09T05:39:04.637Z,0.68
2024-01-09T05:41:33.396Z,0.74
2024-01-09T05:44:00.676Z,0.79
2024-01-09T05:46:28.398Z,0.60
2024-01-09T05:48:55.626Z,0.88
2024-01-09T05:51:23.013Z,0.89
2024-01-09T05:53:51.679Z,0.95
2024-01-09T05:56:19.273Z,1.02
2024-01-09T05:58:47.813Z,1.08
2024-01-09T06:01:15.327Z,1.13
2024-01-09T06:03:42.830Z,1.17
2024-01-09T06:06:10.440Z,1.21
2024-01-09T06:08:37.630Z,1.16
2024-01-09T06:11:05.606Z,1.03
2024-01-09T06:13:32.837Z,0.93
2024-01-09T06:16:01.694Z,0.86
2024-01-09T06:18:28.955Z,0.80
2024-01-09T06:20:56.569Z,0.94
2024-01-09T06:23:23.985Z,0.89
2024-01-09T06:25:51.666Z,0.87
2024-01-09T06:28:18.765Z,0.88
2024-01-09T06:30:46.186Z,0.94
2024-01-09T06:33:14.810Z,1.07
2024-01-09T06:35:42.366Z,1.13
2024-01-09T06:38:09.403Z,1.00
2024-01-09T06:40:36.723Z,1.12
2024-01-09T06:43:03.923Z,0.99
2024-01-09T06:45:31.535Z,0.87
2024-01-09T06:47:58.795Z,0.87
2024-01-09T06:50:33.986Z,0.77
2024-01-09T06:53:05.781Z,0.92
2024-01-09T06:55:33.830Z,0.96
2024-01-09T06:58:03.142Z,1.01
2024-01-09T07:00:30.596Z,1.02
2024-01-09T07:02:58.419Z,0.99
2024-01-09T07:05:27.494Z,0.56
2024-01-09T07:07:54.618Z,0.47
2024-01-09T07:10:22.041Z,0.52
2024-01-09T07:12:49.184Z,0.29
2024-01-09T07:15:17.702Z,0.05
2024-01-09T07:17:46.095Z,-0.20
2024-01-09T07:20:13.829Z,-0.23
2024-01-09T07:22:44.886Z,-0.39
2024-01-09T07:25:15.483Z,-0.42
2024-01-09T07:27:42.742Z,-0.53
2024-01-09T07:30:11.257Z,-0.53
2024-01-09T07:32:39.164Z,-0.47
2024-01-09T07:35:07.942Z,-0.53
2024-01-09T07:37:35.206Z,-0.68
2024-01-09T07:40:07.536Z,-0.53
2024-01-09T07:42:42.970Z,-0.52
2024-01-09T07:45:13.531Z,-0.28
2024-01-09T07:47:40.735Z,0.12
2024-01-09T07:50:09.543Z,0.53
2024-01-09T07:52:36.702Z,0.59
2024-01-09T07:55:06.062Z,0.40
2024-01-09T07:57:34.277Z,0.16
2024-01-09T08:00:01.726Z,0.25
2024-01-09T08:02:29.529Z,0.52
2024-01-09T08:04:58.920Z,0.77
2024-01-09T08:07:26.040Z,1.04
2024-01-09T08:09:53.431Z,1.25
2024-01-09T08:12:21.927Z,1.27
2024-01-09T08:14:50.533Z,1.26
2024-01-09T08:17:18.057Z,1.10
2024-01-09T08:19:46.693Z,1.19
2024-01-09T08:22:14.510Z,1.27
2024-01-09T08:24:42.121Z,1.48
2024-01-09T08:27:09.254Z,1.67
2024-01-09T08:29:38.133Z,1.65
2024-01-09T08:32:07.051Z,1.69
2024-01-09T08:34:34.349Z,1.74
2024-01-09T08:37:01.458Z,1.67
2024-01-09T08:39:28.893Z,1.60
2024-01-09T08:41:56.059Z,1.36
2024-01-09T08:44:26.436Z,0.98
2024-01-09T08:46:54.857Z,0.79
2024-01-09T08:49:23.503Z,0.52
2024-01-09T08:51:50.651Z,0.41
2024-01-09T08:54:18.471Z,0.30
2024-01-09T08:56:45.676Z,0.28
2024-01-09T08:59:13.172Z,0.26
2024-01-09T09:01:40.294Z,0.26
2024-01-09T09:04:09.368Z,0.22
2024-01-09T09:06:36.701Z,0.21
2024-01-09T09:09:07.002Z,0.31
2024-01-09T09:11:34.337Z,0.72
2024-01-09T09:14:02.306Z,1.09
2024-01-09T09:16:30.380Z,1.37
2024-01-09T09:18:58.081Z,1.60
2024-01-09T09:21:26.951Z,1.75
2024-01-09T09:23:54.595Z,1.96
2024-01-09T09:26:21.798Z,2.05
2024-01-09T09:29:00.251Z,2.18
2024-01-09T09:31:39.883Z,2.35
2024-01-09T09:34:08.136Z,2.39
2024-01-09T09:36:38.668Z,2.37
2024-01-09T09:39:06.215Z,2.42
2024-01-09T09:41:34.178Z,2.42
2024-01-09T09:44:04.643Z,2.25
2024-01-09T09:46:34.976Z,2.28
2024-01-09T09:49:04.602Z,2.28
2024-01-09T09:51:32.112Z,2.18
2024-01-09T09:54:03.375Z,2.31
2024-01-09T09:56:32.481Z,2.43
2024-01-09T09:58:59.910Z,2.61
2024-01-09T10:01:29.491Z,2.80
2024-01-09T10:04:00.912Z,2.90
2024-01-09T10:06:29.853Z,3.00
2024-01-09T10:08:57.964Z,3.11
2024-01-09T10:11:26.564Z,3.22
2024-01-09T10:13:56.350Z,3.24
2024-01-09T10:16:23.510Z,3.20
2024-01-09T10:18:55.552Z,3.11
2024-01-09T10:21:23.847Z,3.04
2024-01-09T10:23:55.165Z,2.95
2024-01-09T10:26:26.439Z,2.89
2024-01-09T10:28:59.748Z,2.57
2024-01-09T10:31:26.905Z,2.59
2024-01-09T10:33:55.419Z,2.60
2024-01-09T10:36:23.695Z,2.84
2024-01-09T10:38:51.213Z,2.91
2024-01-09T10:41:19.903Z,3.01
2024-01-09T10:43:48.958Z,2.97
2024-01-09T10:46:17.332Z,2.75
2024-01-09T10:48:46.929Z,2.38
2024-01-09T10:51:16.486Z,2.32
2024-01-09T10:53:46.326Z,2.56
2024-01-09T10:56:18.785Z,2.29
2024-01-09T10:58:47.936Z,2.44
2024-01-09T11:01:15.252Z,2.75
2024-01-09T11:03:45.039Z,2.82
2024-01-09T11:06:15.890Z,2.88
2024-01-09T11:08:46.472Z,2.76
2024-01-09T11:11:16.434Z,2.84
2024-01-09T11:13:47.867Z,2.72
2024-01-09T11:16:19.009Z,2.59
2024-01-09T11:18:48.838Z,2.51
2024-01-09T11:21:18.606Z,2.54
2024-01-09T11:23:56.067Z,2.54
2024-01-09T11:26:28.340Z,2.50
2024-01-09T11:28:57.409Z,2.41
2024-01-09T11:31:25.142Z,2.39
2024-01-09T11:33:56.548Z,2.45
2024-01-09T11:36:28.728Z,2.44
2024-01-09T11:38:57.086Z,2.41
2024-01-09T11:41:31.172Z,2.42
2024-01-09T11:44:04.009Z,2.36
2024-01-09T11:46:33.731Z,2.28
2024-01-09T11:49:03.690Z,2.25
2024-01-09T11:51:32.327Z,2.23
2024-01-09T11:54:00.318Z,2.25
2024-01-09T11:56:28.733Z,2.21
2024-01-09T11:58:56.353Z,2.37
2024-01-09T12:01:23.827Z,2.39
2024-01-09T12:03:53.101Z,2.34
2024-01-09T12:06:22.614Z,2.34
2024-01-09T12:08:50.417Z,2.37
2024-01-09T12:11:18.050Z,2.43
2024-01-09T12:13:45.939Z,2.45
2024-01-09T12:16:17.554Z,2.43
2024-01-09T12:18:49.723Z,2.34
2024-01-09T12:21:17.250Z,2.39
2024-01-09T12:24:02.930Z,2.47
2024-01-09T12:26:34.606Z,2.67
2024-01-09T12:29:03.521Z,2.97
2024-01-09T12:31:30.717Z,2.99
2024-01-09T12:33:58.551Z,3.23
2024-01-09T12:36:28.011Z,3.29
2024-01-09T12:38:58.087Z,3.19
2024-01-09T12:41:27.910Z,3.03
2024-01-09T12:43:55.290Z,2.97
2024-01-09T12:46:22.930Z,2.96
2024-01-09T12:48:51.736Z,2.95
2024-01-09T12:51:20.127Z,2.99
2024-01-09T12:53:48.152Z,3.07
2024-01-09T12:56:17.220Z,3.07
2024-01-09T12:58:46.076Z,3.08
2024-01-09T13:01:13.445Z,3.12
2024-01-09T13:03:41.169Z,3.17
2024-01-09T13:06:11.367Z,3.22
2024-01-09T13:08:42.352Z,3.26
2024-01-09T13:11:10.939Z,3.18
2024-01-09T13:13:40.832Z,3.39
2024-01-09T13:16:08.746Z,3.43
2024-01-09T13:18:36.808Z,3.41
2024-01-09T13:21:04.591Z,3.36
2024-01-09T13:26:03.817Z,3.18
2024-01-09T13:28:31.608Z,3.17
2024-01-09T13:31:00.551Z,3.13
2024-01-09T13:33:28.769Z,3.09
2024-01-09T13:35:59.098Z,3.04
2024-01-09T13:38:26.376Z,3.03
2024-01-09T13:40:53.513Z,3.03
2024-01-09T13:43:26.266Z,3.04
2024-01-09T13:45:55.352Z,2.95
2024-01-09T13:48:24.145Z,3.04
2024-01-09T13:53:23.476Z,2.98
2024-01-09T13:55:52.161Z,2.94
2024-01-09T13:58:19.765Z,2.87
2024-01-09T14:00:46.984Z,2.86
2024-01-09T14:03:15.227Z,2.79
2024-01-09T14:05:44.170Z,2.67
2024-01-09T14:08:11.914Z,2.50
2024-01-09T14:10:39.247Z,2.30
2024-01-09T14:13:08.631Z,2.13
2024-01-09T14:15:36.621Z,2.11
2024-01-09T14:18:06.253Z,2.20
2024-01-09T14:20:33.507Z,2.30
2024-01-09T14:23:02.395Z,2.30
2024-01-09T14:25:29.970Z,2.41
2024-01-09T14:27:57.451Z,2.33
2024-01-09T14:30:24.911Z,2.31
2024-01-09T14:32:52.458Z,2.32
2024-01-09T14:35:20.620Z,2.16
2024-01-09T14:37:48.101Z,2.14
2024-01-09T14:40:16.808Z,2.21
2024-01-09T14:42:44.163Z,2.20
2024-01-09T14:45:13.657Z,2.19
2024-01-09T14:47:44.523Z,2.06
2024-01-09T14:50:11.796Z,1.99
2024-01-09T14:52:39.354Z,2.01
2024-01-09T14:55:07.591Z,1.96
2024-01-09T14:57:36.307Z,2.25
2024-01-09T15:00:06.046Z,2.36
2024-01-09T15:02:33.701Z,2.38
2024-01-09T15:05:02.229Z,2.27
2024-01-09T15:07:29.908Z,2.34
2024-01-09T15:09:57.010Z,2.35
2024-01-09T15:12:28.986Z,2.38
2024-01-09T15:14:58.940Z,2.40
2024-01-09T15:17:26.433Z,2.35
2024-01-09T15:19:53.652Z,2.28
2024-01-09T15:22:20.891Z,2.25
2024-01-09T15:24:48.531Z,2.18
2024-01-09T15:27:15.908Z,2.28
2024-01-09T15:29:43.120Z,2.30
2024-01-09T15:32:11.961Z,2.28
2024-01-09T15:34:39.169Z,2.29
2024-01-09T15:37:06.499Z,2.27
2024-01-09T15:39:33.599Z,2.22
2024-01-09T15:42:01.122Z,2.22
2024-01-09T15:44:29.984Z,2.25
2024-01-09T15:46:57.341Z,2.21
2024-01-09T15:49:26.044Z,2.13
2024-01-09T15:51:54.301Z,2.07
2024-01-09T15:54:21.521Z,2.08
2024-01-09T15:56:49.446Z,2.03
2024-01-09T15:59:16.836Z,2.14
2024-01-09T16:01:45.701Z,2.20
2024-01-09T16:04:12.901Z,2.18
2024-01-09T16:06:43.129Z,2.17
2024-01-09T16:09:13.376Z,2.17
2024-01-09T16:11:48.142Z,2.13
2024-01-09T16:14:16.884Z,1.98
2024-01-09T16:16:44.089Z,1.99
2024-01-09T16:19:11.155Z,2.01
2024-01-09T16:21:39.140Z,2.03
2024-01-09T16:24:10.462Z,1.90
2024-01-09T16:26:38.046Z,1.90
2024-01-09T16:29:05.379Z,1.93
2024-01-09T16:34:26.295Z,1.49
2024-01-09T16:36:53.778Z,1.77
2024-01-09T16:39:25.216Z,1.95
2024-01-09T16:41:55.097Z,1.84
2024-01-09T16:44:23.420Z,1.33
2024-01-09T16:46:50.787Z,1.78
2024-01-09T16:49:19.220Z,1.79
2024-01-09T16:51:47.402Z,1.79
2024-01-09T16:54:14.514Z,1.66
2024-01-09T16:56:43.249Z,1.56
2024-01-09T16:59:10.387Z,1.49
2024-01-09T17:01:37.854Z,1.43
2024-01-09T17:04:05.208Z,1.44
2024-01-09T17:06:32.608Z,1.52
2024-01-09T17:09:01.435Z,1.35
2024-01-09T17:11:31.534Z,1.63
2024-01-09T17:14:01.410Z,1.58
2024-01-09T17:16:53.411Z,1.71
2024-01-09T17:19:31.941Z,1.32
2024-01-09T17:21:59.672Z,1.84
2024-01-09T17:24:30.906Z,1.63
2024-01-09T17:27:03.551Z,1.84
2024-01-09T17:29:36.842Z,1.65
2024-01-09T17:32:27.658Z,1.83
2024-01-09T17:35:32.818Z,0.68
2024-01-09T17:38:17.965Z,1.59
2024-01-09T17:40:49.669Z,1.73
2024-01-09T17:43:21.883Z,1.83
2024-01-09T17:46:41.736Z,1.59
2024-01-09T17:49:10.511Z,1.82
2024-01-09T17:51:40.036Z,1.92
2024-01-09T17:54:09.851Z,1.93
2024-01-09T17:56:50.640Z,1.90
2024-01-09T18:05:18.830Z,1.68
2024-01-09T18:07:46.345Z,1.72
2024-01-09T18:10:14.213Z,1.64
2024-01-09T18:12:53.205Z,1.43
2024-01-09T18:15:23.110Z,1.23
2024-01-09T18:17:52.093Z,1.26
2024-01-09T18:20:20.728Z,1.54
2024-01-09T18:22:48.203Z,1.63
2024-01-09T18:25:15.669Z,1.54
2024-01-09T18:27:44.159Z,1.46
2024-01-09T18:30:12.834Z,1.45
2024-01-09T18:32:42.160Z,1.46
2024-01-09T18:35:09.970Z,1.47
2024-01-09T18:37:38.910Z,1.45
2024-01-09T18:40:10.075Z,1.39
2024-01-09T18:42:37.480Z,1.31
2024-01-09T18:45:05.661Z,1.32
2024-01-09T18:47:39.362Z,1.34
2024-01-09T18:50:08.245Z,1.30
2024-01-09T18:52:36.051Z,1.35
2024-01-09T18:55:07.928Z,1.27
2024-01-09T18:57:35.890Z,1.24
2024-01-09T19:00:06.579Z,1.13
2024-01-09T19:02:35.168Z,1.29
2024-01-09T19:05:08.314Z,1.29
2024-01-09T19:07:36.063Z,1.34
2024-01-09T19:10:05.284Z,1.34
2024-01-09T19:12:32.744Z,1.38
2024-01-09T19:14:59.873Z,1.40
2024-01-09T19:17:27.337Z,1.28
2024-01-09T19:19:55.709Z,1.39
2024-01-09T19:22:23.309Z,1.41
2024-01-09T19:24:51.593Z,1.36
2024-01-09T19:27:20.696Z,1.35
2024-01-09T19:29:49.674Z,1.29
2024-01-09T19:32:18.349Z,1.38
2024-01-09T19:34:45.632Z,0.96
2024-01-09T19:37:15.980Z,1.18
2024-01-09T19:39:44.232Z,1.17
2024-01-09T19:42:12.024Z,1.24
2024-01-09T19:44:40.593Z,1.28
2024-01-09T19:47:08.133Z,1.32
2024-01-09T19:49:35.553Z,1.36
2024-01-09T19:52:06.030Z,1.44
2024-01-09T19:54:33.337Z,1.47
2024-01-09T19:57:00.760Z,1.50
2024-01-09T19:59:27.859Z,1.39
2024-01-09T20:01:56.735Z,1.38
2024-01-09T20:04:24.211Z,1.31
2024-01-09T20:06:52.374Z,1.27
2024-01-09T20:09:19.872Z,1.27
2024-01-09T20:11:47.335Z,1.24
2024-01-09T20:14:14.448Z,1.15
2024-01-09T20:16:42.021Z,1.24
2024-01-09T20:19:10.877Z,1.22
2024-01-09T20:21:38.056Z,1.25
2024-01-09T20:24:08.504Z,1.20
2024-01-09T20:26:36.348Z,1.13
2024-01-09T20:29:03.562Z,1.09
2024-01-09T20:31:33.795Z,1.16
2024-01-09T20:34:00.986Z,1.13
2024-01-09T20:36:29.693Z,1.26
2024-01-09T20:38:57.862Z,1.31
2024-01-09T20:41:25.339Z,1.15
2024-01-09T20:43:53.814Z,1.25
2024-01-09T20:46:21.311Z,1.23
2024-01-09T20:48:48.366Z,1.18
2024-01-09T20:51:21.563Z,1.20
2024-01-09T20:53:50.337Z,1.16
2024-01-09T20:56:17.581Z,1.13
2024-01-09T20:58:45.320Z,1.10
2024-01-09T21:01:12.917Z,1.08
2024-01-09T21:03:40.246Z,1.06
2024-01-09T21:06:08.546Z,1.02
2024-01-09T21:08:35.952Z,1.00
2024-01-09T21:11:06.208Z,0.98
2024-01-09T21:13:36.156Z,0.82
2024-01-09T21:16:03.936Z,0.94
2024-01-09T21:18:31.152Z,0.93
2024-01-09T21:21:03.441Z,0.90
2024-01-09T21:23:35.613Z,0.86
2024-01-09T21:26:12.035Z,0.75
2024-01-09T21:28:39.220Z,0.84
2024-01-09T21:31:06.792Z,0.84
2024-01-09T21:33:34.909Z,0.82
2024-01-09T21:36:04.691Z,0.82
2024-01-09T21:38:32.415Z,0.77
2024-01-09T21:41:00.390Z,0.77
2024-01-09T21:43:29.622Z,0.76
2024-01-09T21:45:56.835Z,0.75
2024-01-09T21:48:24.244Z,0.66
2024-01-09T21:50:51.805Z,0.67
2024-01-09T21:53:19.063Z,0.64
2024-01-09T21:55:46.663Z,0.61
2024-01-09T21:58:14.533Z,0.58
2024-01-09T22:00:43.493Z,0.53
2024-01-09T22:03:32.738Z,0.48
2024-01-09T22:06:00.307Z,0.39
2024-01-09T22:08:27.364Z,0.45
2024-01-09T22:10:55.095Z,0.39
2024-01-09T22:13:22.090Z,0.37
2024-01-09T22:15:52.501Z,0.33
2024-01-09T22:18:20.650Z,0.25
2024-01-09T22:20:48.175Z,0.17
2024-01-09T22:23:15.492Z,0.13
2024-01-09T22:25:43.180Z,0.08
2024-01-09T22:28:12.385Z,0.01
2024-01-09T22:30:42.941Z,0.01
2024-01-09T22:33:12.054Z,-0.03
2024-01-09T22:35:41.471Z,-0.06
2024-01-09T22:38:08.439Z,-0.11
2024-01-09T22:40:36.069Z,-0.21
2024-01-09T22:43:03.346Z,-0.30
2024-01-09T22:45:30.789Z,-0.34
2024-01-09T22:47:57.793Z,-0.39
2024-01-09T22:51:22.042Z,-0.52
2024-01-09T22:53:49.412Z,-0.57
2024-01-09T22:56:17.736Z,-0.51
2024-01-09T22:58:45.638Z,-0.53
2024-01-09T23:01:12.975Z,-0.58
2024-01-09T23:03:40.739Z,-0.80
2024-01-09T23:06:09.530Z,-1.00
2024-01-09T23:08:36.900Z,-1.17
2024-01-09T23:11:04.203Z,-1.20
2024-01-09T23:13:31.501Z,-1.42
2024-01-09T23:15:58.708Z,-1.53
2024-01-09T23:18:26.081Z,-1.50
2024-01-09T23:21:25.431Z,-1.67
2024-01-09T23:23:54.725Z,-1.83
2024-01-09T23:26:21.872Z,-1.90
2024-01-09T23:28:49.546Z,-1.98
2024-01-09T23:31:21.044Z,-2.04
2024-01-09T23:33:48.510Z,-2.21
2024-01-09T23:36:15.583Z,-1.92
2024-01-09T23:38:43.129Z,-1.95
2024-01-09T23:41:22.773Z,-1.93
2024-01-09T23:43:50.383Z,-1.87
2024-01-09T23:46:17.484Z,-1.84
2024-01-09T23:48:44.986Z,-1.82
2024-01-09T23:51:34.038Z,-1.82
2024-01-09T23:54:01.499Z,-1.94
2024-01-09T23:56:29.975Z,-2.08
2024-01-09T23:58:57.363Z,-2.21
